Shafter, California
Current Conditions -  °F | °C
As of 8:54 PM on Saturday 22 Nov 2014 (Local Time) from KBFL Reporting Station
Overcast Overcast  
Wind Chill: 60°   Ceiling: 3000
Heat Index: 60°   Visibility: 10mi
Dew Point: 50°   Wind: 7mph
Humidity: 69%   Direction: 350°N
Pressure: 30.13"   Gusts: NA
Location:  35.5°N, 119.27°W
Report Text: KBFL 230454Z 35006KT 10SM OVC030 16/10 A3013 RMK AO2 SLP200 T01560100
Loading
Personal Weather Stations






























Interactive Weather Map New forecast layout! Learn more

10-Day Weather Forecast

Advertisements
Track Severe Weather on mobile